Time;durP1;ratioP1;P1;durP2;ratioP2;P2;SDS_P1;SDS_P2;PMS_P1;PMS_P2;Temp;Humidity;BMP_temperature;BMP_pressure;BME280_temperature;BME280_humidity;BME280_pressure;Samples;Min_cycle;Max_cycle;Signal;HPM_P1;HPM_P2
2020/12/25 00:01:45;;;;;;;40.67;29.77;;;;;;;8.69;98.55;99897.22;5053573;28;20060;-77
2020/12/25 00:04:49;;;;;;;39.90;28.63;;;;;;;8.72;98.38;99888.88;5053679;28;20479;-79
2020/12/25 00:07:54;;;;;;;41.33;29.52;;;;;;;8.72;98.38;99891.56;5061408;28;20056;-78
2020/12/25 00:10:58;;;;;;;39.83;28.52;;;;;;;8.76;98.46;99885.84;5056334;28;20056;-78
2020/12/25 00:14:04;;;;;;;38.60;28.65;;;;;;;8.69;98.04;99881.16;5057672;28;20052;-77
2020/12/25 00:17:08;;;;;;;41.00;29.10;;;;;;;8.67;98.20;99875.06;5057470;28;20499;-78
2020/12/25 00:20:12;;;;;;;41.60;29.15;;;;;;;8.58;98.38;99874.06;5057487;28;20051;-77
2020/12/25 00:23:17;;;;;;;35.95;27.20;;;;;;;8.64;98.10;99880.72;5075488;28;20063;-77
2020/12/25 00:26:28;;;;;;;40.33;28.25;;;;;;;8.55;97.95;99887.69;5077004;28;20063;-77
2020/12/25 00:29:33;;;;;;;38.97;27.42;;;;;;;8.53;98.28;99887.00;5076143;28;20064;-77
2020/12/25 00:32:37;;;;;;;38.88;26.67;;;;;;;8.54;98.24;99872.66;5057312;28;20064;-77
2020/12/25 00:35:42;;;;;;;38.30;28.25;;;;;;;8.57;98.41;99876.88;5061932;28;20052;-79
2020/12/25 00:38:46;;;;;;;37.92;28.27;;;;;;;8.53;98.26;99881.63;5076925;28;20051;-78
2020/12/25 00:41:51;;;;;;;34.40;26.13;;;;;;;8.58;98.48;99875.88;5076982;28;20052;-78
2020/12/25 00:44:56;;;;;;;38.22;25.73;;;;;;;8.62;98.56;99871.94;5056021;28;20048;-78
2020/12/25 00:48:01;;;;;;;35.25;26.13;;;;;;;8.64;98.71;99870.00;5063583;28;20118;-78
2020/12/25 00:51:18;;;;;;;38.65;25.65;;;;;;;8.57;97.87;99869.69;5064798;28;20048;-78
2020/12/25 00:54:23;;;;;;;34.88;26.42;;;;;;;8.50;97.99;99861.34;5055557;28;20498;-77
2020/12/25 00:57:50;;;;;;;34.00;26.80;;;;;;;8.57;98.69;99866.19;5056304;28;20052;-77
2020/12/25 01:00:57;;;;;;;34.78;24.20;;;;;;;8.59;98.22;99867.75;5055806;28;20495;-77
2020/12/25 01:04:02;;;;;;;39.13;26.45;;;;;;;8.60;98.02;99871.25;5056595;28;20059;-77
2020/12/25 01:07:06;;;;;;;;;;;;;;;8.51;98.08;99867.56;5056589;28;20108;-77
2020/12/25 01:10:10;;;;;;;37.45;26.05;;;;;;;8.52;97.96;99858.53;5064202;28;19923;-78
2020/12/25 01:13:15;;;;;;;39.47;27.70;;;;;;;8.50;98.54;99861.34;5073843;28;20505;-78
2020/12/25 01:16:20;;;;;;;39.60;27.45;;;;;;;8.52;98.00;99861.22;5076488;28;20056;-77
2020/12/25 01:19:25;;;;;;;40.80;27.40;;;;;;;8.48;98.42;99857.97;5067194;28;20040;-78
2020/12/25 01:22:29;;;;;;;33.50;24.30;;;;;;;8.42;98.81;99866.50;5054831;28;20044;-78
2020/12/25 01:25:33;;;;;;;35.70;25.02;;;;;;;8.34;98.85;99869.03;5056033;28;20048;-77
2020/12/25 01:28:38;;;;;;;41.45;25.65;;;;;;;8.29;98.48;99870.41;5055476;28;20423;-77
2020/12/25 01:31:41;;;;;;;35.15;25.58;;;;;;;8.31;98.67;99866.59;5062600;28;20068;-78
2020/12/25 01:34:46;;;;;;;35.03;25.42;;;;;;;8.36;99.19;99872.41;5062002;28;20052;-79
2020/12/25 01:37:50;;;;;;;33.70;23.23;;;;;;;8.41;99.14;99870.19;5070168;28;20051;-78
2020/12/25 01:40:54;;;;;;;34.53;24.67;;;;;;;8.40;99.16;99873.81;5056122;28;20379;-78
2020/12/25 01:43:58;;;;;;;39.55;25.48;;;;;;;8.34;99.20;99871.69;5071527;28;20044;-77
2020/12/25 01:47:02;;;;;;;43.90;28.08;;;;;;;8.31;98.99;99877.31;5061128;28;20392;-78
2020/12/25 01:50:07;;;;;;;36.08;25.42;;;;;;;8.35;99.47;99872.53;5064140;28;20060;-78
2020/12/25 01:53:15;;;;;;;62.45;29.13;;;;;;;8.27;99.60;99873.19;5065303;28;20055;-78
2020/12/25 01:56:19;;;;;;;44.50;28.20;;;;;;;8.24;99.41;99876.09;5063160;28;20052;-78
2020/12/25 01:59:23;;;;;;;45.58;28.13;;;;;;;8.25;99.54;99880.47;5056900;28;20052;-78
2020/12/25 02:02:30;;;;;;;46.75;28.48;;;;;;;8.15;100.00;99868.84;5075736;28;20483;-78
2020/12/25 02:05:35;;;;;;;57.70;28.92;;;;;;;8.10;99.93;99863.06;5075427;28;20075;-78
2020/12/25 02:08:40;;;;;;;60.90;28.02;;;;;;;8.10;100.00;99859.56;5075351;28;20056;-78
2020/12/25 02:11:44;;;;;;;100.25;31.08;;;;;;;7.99;100.00;99854.25;5075296;28;20047;-78
2020/12/25 02:14:48;;;;;;;110.38;29.88;;;;;;;7.93;100.00;99857.44;5063655;28;20388;-78
2020/12/25 02:17:53;;;;;;;38.72;26.02;;;;;;;7.95;100.00;99840.31;5069059;28;20040;-78
2020/12/25 02:21:02;;;;;;;160.02;27.63;;;;;;;8.00;100.00;99834.59;5055421;28;20056;-79
2020/12/25 02:24:06;;;;;;;37.35;25.00;;;;;;;8.06;100.00;99848.28;5054291;28;20045;-78
2020/12/25 02:27:10;;;;;;;45.15;25.88;;;;;;;8.08;100.00;99835.63;5055050;28;20052;-79
2020/12/25 02:30:14;;;;;;;45.38;25.90;;;;;;;8.08;100.00;99834.75;5054541;28;20045;-78
2020/12/25 02:33:19;;;;;;;37.35;25.55;;;;;;;8.14;100.00;99840.44;5055409;28;20060;-78
2020/12/25 02:36:23;;;;;;;49.63;26.70;;;;;;;8.13;100.00;99833.38;5059584;28;20051;-78
2020/12/25 02:39:27;;;;;;;59.47;26.30;;;;;;;8.19;100.00;99827.53;5074293;28;20055;-77
2020/12/25 02:42:32;;;;;;;34.25;24.35;;;;;;;8.15;100.00;99823.41;5074662;28;20059;-78
2020/12/25 02:45:43;;;;;;;88.82;25.85;;;;;;;8.17;100.00;99823.28;5074544;28;20056;-78
2020/12/25 02:48:47;;;;;;;34.20;23.98;;;;;;;8.19;100.00;99822.19;5074477;28;20379;-79
2020/12/25 02:51:52;;;;;;;82.93;25.63;;;;;;;8.12;100.00;99822.84;5073786;28;20051;-78
2020/12/25 02:54:57;;;;;;;74.55;26.10;;;;;;;8.08;100.00;99813.38;5074255;28;20051;-78
2020/12/25 02:58:01;;;;;;;44.13;23.10;;;;;;;8.15;100.00;99815.38;5074628;28;20055;-76
2020/12/25 03:01:08;;;;;;;;;;;;;;;8.04;100.00;99811.97;5073862;28;20047;-78
2020/12/25 03:04:12;;;;;;;110.72;24.98;;;;;;;7.93;100.00;99812.88;5073190;28;19920;-78
2020/12/25 03:07:16;;;;;;;94.70;23.35;;;;;;;7.93;100.00;99810.19;5073641;28;20044;-79
2020/12/25 03:10:20;;;;;;;88.60;24.15;;;;;;;7.87;100.00;99808.88;5074421;28;20383;-77
2020/12/25 03:13:26;;;;;;;91.32;24.58;;;;;;;7.88;100.00;99807.06;5061323;28;20053;-78
2020/12/25 03:16:31;;;;;;;42.58;23.90;;;;;;;7.94;100.00;99806.56;5074099;28;20063;-79
2020/12/25 03:19:35;;;;;;;52.53;24.98;;;;;;;7.98;100.00;99807.97;5072784;28;20071;-76
2020/12/25 03:22:39;;;;;;;42.10;23.13;;;;;;;8.04;100.00;99803.94;5074276;28;20051;-76
2020/12/25 03:25:43;;;;;;;;;;;;;;;7.96;100.00;99801.94;5073939;28;20072;-78
2020/12/25 03:28:47;;;;;;;53.65;21.50;;;;;;;7.94;100.00;99803.03;5073947;28;19917;-77
2020/12/25 03:31:51;;;;;;;57.17;20.83;;;;;;;7.98;100.00;99791.09;5072789;28;20056;-79
2020/12/25 03:34:55;;;;;;;28.13;20.90;;;;;;;7.95;100.00;99797.53;5073848;28;20051;-76
2020/12/25 03:38:00;;;;;;;33.65;20.02;;;;;;;7.98;100.00;99791.94;5073793;28;20067;-76
2020/12/25 03:41:04;;;;;;;51.63;20.60;;;;;;;7.98;100.00;99796.44;5074061;28;20063;-76
2020/12/25 03:44:08;;;;;;;36.58;20.65;;;;;;;7.93;100.00;99791.50;5072707;28;20047;-78
2020/12/25 03:47:13;;;;;;;42.63;21.10;;;;;;;7.92;100.00;99792.50;5074032;28;20059;-78
2020/12/25 03:50:16;;;;;;;;;;;;;;;7.85;100.00;99794.00;5074244;28;20056;-78
2020/12/25 03:53:20;;;;;;;39.55;20.42;;;;;;;7.92;100.00;99811.19;5072988;28;20278;-77
2020/12/25 03:56:24;;;;;;;;;;;;;;;7.84;100.00;99819.00;5074436;28;20048;-78
2020/12/25 03:59:29;;;;;;;32.83;20.85;;;;;;;7.81;100.00;99827.28;5073459;28;20283;-77
2020/12/25 04:02:33;;;;;;;29.05;20.77;;;;;;;7.84;100.00;99821.69;5072248;28;20422;-77
2020/12/25 04:05:37;;;;;;;34.72;20.15;;;;;;;7.78;100.00;99819.50;5073380;28;20055;-77
2020/12/25 04:08:43;;;;;;;32.20;20.15;;;;;;;7.62;100.00;99811.13;5073381;28;20052;-77
2020/12/25 04:11:49;;;;;;;35.65;20.52;;;;;;;7.61;100.00;99807.59;5073533;28;20138;-78
2020/12/25 04:14:53;;;;;;;31.48;20.20;;;;;;;7.62;100.00;99809.31;5073478;28;20051;-78
2020/12/25 04:17:57;;;;;;;29.50;19.35;;;;;;;7.55;100.00;99815.28;5073701;28;20060;-78
2020/12/25 04:21:01;;;;;;;26.77;19.13;;;;;;;7.63;100.00;99807.44;5073341;28;20059;-78
2020/12/25 04:24:06;;;;;;;30.55;18.48;;;;;;;7.73;100.00;99811.91;5072996;28;20466;-78
2020/12/25 04:27:10;;;;;;;27.27;18.42;;;;;;;7.77;100.00;99812.50;5073401;28;20063;-77
2020/12/25 04:30:15;;;;;;;30.95;19.23;;;;;;;7.74;100.00;99812.75;5073633;28;20483;-77
2020/12/25 04:33:19;;;;;;;24.77;18.20;;;;;;;7.76;100.00;99803.63;5072735;28;20055;-77
2020/12/25 04:36:23;;;;;;;;;;;;;;;7.73;100.00;99809.22;5072903;28;20047;-77
2020/12/25 04:39:26;;;;;;;22.92;16.98;;;;;;;7.76;100.00;99808.13;5073235;28;19916;-77
2020/12/25 04:42:38;;;;;;;24.05;16.35;;;;;;;7.82;100.00;99804.94;5073504;28;20048;-78
2020/12/25 04:45:42;;;;;;;27.67;18.02;;;;;;;7.66;100.00;99815.22;5073148;28;20052;-77
2020/12/25 04:48:48;;;;;;;28.25;18.50;;;;;;;7.75;100.00;99822.47;5073137;28;20503;-77
2020/12/25 04:51:52;;;;;;;27.13;18.02;;;;;;;7.75;100.00;99825.97;5072845;28;20056;-77
2020/12/25 04:54:57;;;;;;;24.35;17.73;;;;;;;7.80;100.00;99823.75;5072270;28;20044;-77
2020/12/25 04:58:01;;;;;;;21.83;16.60;;;;;;;7.88;100.00;99841.81;5076675;28;20047;-77
2020/12/25 05:01:06;;;;;;;;;;;;;;;7.84;99.96;99843.91;5077065;28;20438;-78
2020/12/25 05:04:22;;;;;;;19.33;14.68;;;;;;;7.96;100.00;99839.34;5076268;28;20314;-78
2020/12/25 05:07:27;;;;;;;23.15;14.23;;;;;;;7.84;99.39;99843.91;5075409;28;20052;-77
2020/12/25 05:10:32;;;;;;;22.10;15.10;;;;;;;7.81;99.41;99849.50;5076577;28;20055;-77
2020/12/25 05:13:55;;;;;;;21.08;16.05;;;;;;;7.81;99.75;99844.16;5076607;28;20055;-78
2020/12/25 05:17:00;;;;;;;21.20;15.63;;;;;;;7.79;99.43;99848.78;5076051;28;20047;-77
2020/12/25 05:20:05;;;;;;;25.10;17.38;;;;;;;7.82;99.46;99850.34;5076257;28;20056;-78
2020/12/25 05:23:09;;;;;;;20.38;15.38;;;;;;;7.88;99.55;99850.69;5075771;28;20063;-78
2020/12/25 05:26:15;;;;;;;20.90;14.95;;;;;;;7.92;99.23;99845.06;5075470;28;20044;-78
2020/12/25 05:29:23;;;;;;;21.55;15.75;;;;;;;7.92;99.23;99845.94;5076027;28;20063;-77
2020/12/25 05:32:30;;;;;;;22.98;16.17;;;;;;;7.98;98.86;99842.72;5075934;28;20487;-78
2020/12/25 05:35:36;;;;;;;17.40;14.40;;;;;;;8.02;98.43;99846.00;5076141;28;20067;-77
2020/12/25 05:38:47;;;;;;;20.92;16.13;;;;;;;7.89;98.51;99838.16;5076194;28;20051;-77
2020/12/25 05:41:55;;;;;;;21.05;15.60;;;;;;;7.90;98.56;99837.16;5075966;28;20048;-78
2020/12/25 05:44:59;;;;;;;23.35;15.60;;;;;;;7.84;98.86;99829.69;5074640;28;20051;-77
2020/12/25 05:48:05;;;;;;;29.10;16.90;;;;;;;7.68;98.88;99816.78;5075327;28;20055;-77
2020/12/25 05:51:10;;;;;;;26.60;17.17;;;;;;;7.63;99.59;99823.47;5075114;28;20055;-77
2020/12/25 05:54:23;;;;;;;24.27;17.52;;;;;;;7.64;99.35;99820.69;5075964;28;20387;-77
2020/12/25 05:57:33;;;;;;;29.23;17.90;;;;;;;7.56;99.74;99832.97;5075098;28;20051;-77
2020/12/25 06:00:40;;;;;;;29.63;17.92;;;;;;;7.55;100.00;99836.66;5075547;28;20051;-77
2020/12/25 06:03:45;;;;;;;27.52;17.10;;;;;;;7.53;100.00;99841.28;5075692;28;20047;-77
2020/12/25 06:06:50;;;;;;;26.85;17.42;;;;;;;7.45;100.00;99835.72;5074752;28;20051;-77
2020/12/25 06:09:59;;;;;;;27.90;17.20;;;;;;;7.49;100.00;99853.16;5075398;28;20119;-77
2020/12/25 06:13:06;;;;;;;24.50;16.48;;;;;;;7.60;100.00;99845.13;5075282;28;20048;-78
2020/12/25 06:16:16;;;;;;;22.60;17.02;;;;;;;7.70;100.00;99838.03;5075516;28;20119;-77
2020/12/25 06:19:32;;;;;;;24.60;16.88;;;;;;;7.65;100.00;99833.06;5075519;28;20479;-77
2020/12/25 06:22:40;;;;;;;24.45;16.20;;;;;;;7.58;100.00;99821.19;5074729;28;20051;-77
2020/12/25 06:25:50;;;;;;;25.35;15.27;;;;;;;7.71;99.85;99832.56;5075088;28;20391;-77
2020/12/25 06:28:53;;;;;;;21.55;16.13;;;;;;;7.79;99.96;99824.75;5074602;28;20067;-78
2020/12/25 06:32:00;;;;;;;25.30;15.40;;;;;;;7.87;99.69;99818.75;5075240;28;20388;-78
2020/12/25 06:35:05;;;;;;;27.23;14.18;;;;;;;7.92;98.78;99818.34;5074950;28;20051;-78
2020/12/25 06:38:11;;;;;;;24.25;15.77;;;;;;;7.96;98.40;99819.78;5075102;28;20051;-77
2020/12/25 06:41:17;;;;;;;18.73;14.55;;;;;;;7.94;98.65;99811.06;5074830;28;20395;-76
2020/12/25 06:44:21;;;;;;;20.45;14.85;;;;;;;7.92;98.15;99807.66;5074942;28;20071;-77
2020/12/25 06:47:45;;;;;;;23.88;14.85;;;;;;;7.92;98.45;99810.34;5073650;28;20111;-78
2020/12/25 06:50:53;;;;;;;22.27;14.48;;;;;;;7.94;98.00;99806.56;5074527;28;20363;-78
2020/12/25 06:53:57;;;;;;;21.35;15.45;;;;;;;7.91;98.27;99800.63;5074599;28;20533;-77
2020/12/25 06:57:04;;;;;;;20.10;14.80;;;;;;;7.90;97.83;99797.09;5074144;28;20037;-79
2020/12/25 07:00:08;;;;;;;23.45;14.75;;;;;;;7.92;98.15;99805.00;5074457;28;20387;-77
2020/12/25 07:03:14;;;;;;;24.38;15.55;;;;;;;7.90;98.41;99799.75;5074424;28;20052;-77
2020/12/25 07:06:23;;;;;;;19.63;13.52;;;;;;;7.87;98.69;99797.38;5073753;28;20071;-77
2020/12/25 07:09:44;;;;;;;24.25;15.95;;;;;;;7.73;99.09;99792.34;5074146;28;20067;-78
2020/12/25 07:12:49;;;;;;;22.95;14.38;;;;;;;7.75;98.98;99793.09;5074515;28;20055;-77
2020/12/25 07:15:54;;;;;;;25.88;16.23;;;;;;;7.76;99.22;99802.78;5080742;28;20064;-77
2020/12/25 07:18:58;;;;;;;22.90;15.13;;;;;;;7.74;99.04;99805.59;5074368;28;20072;-77
2020/12/25 07:22:06;;;;;;;27.10;17.77;;;;;;;7.69;98.91;99810.47;5072731;28;20048;-78
2020/12/25 07:25:10;;;;;;;27.08;19.45;;;;;;;7.77;99.30;99818.69;5058142;28;20048;-78
2020/12/25 07:28:14;;;;;;;27.00;17.33;;;;;;;7.78;98.70;99808.81;5064503;28;20056;-75
2020/12/25 07:31:19;;;;;;;26.75;18.50;;;;;;;7.64;98.99;99815.34;5054670;28;20060;-77
2020/12/25 07:34:25;;;;;;;25.13;17.70;;;;;;;7.64;99.39;99809.16;5056815;28;20059;-77
2020/12/25 07:37:29;;;;;;;28.92;18.10;;;;;;;7.58;99.40;99809.69;5073457;28;20056;-76
2020/12/25 07:40:34;;;;;;;28.80;18.70;;;;;;;7.58;99.24;99823.03;5052113;28;20060;-78
2020/12/25 07:43:38;;;;;;;32.28;20.73;;;;;;;7.59;99.79;99822.91;5059861;28;20047;-77
2020/12/25 07:46:43;;;;;;;27.48;19.90;;;;;;;7.64;99.39;99820.69;5078430;28;20052;-79
2020/12/25 07:49:48;;;;;;;25.08;18.23;;;;;;;7.72;99.97;99820.91;5060690;28;20044;-76
2020/12/25 07:52:52;;;;;;;26.92;18.20;;;;;;;7.62;99.65;99829.81;5070411;28;20426;-80
2020/12/25 07:56:04;;;;;;;24.73;16.98;;;;;;;7.57;99.34;99832.88;5061408;28;20494;-80
2020/12/25 07:59:09;;;;;;;24.27;17.25;;;;;;;7.60;99.13;99831.78;5073668;28;20047;-76
2020/12/25 08:02:13;;;;;;;25.60;17.38;;;;;;;7.63;99.18;99832.34;5055442;28;20217;-79
2020/12/25 08:05:18;;;;;;;25.10;17.45;;;;;;;7.58;99.14;99823.88;5058214;28;20388;-79
2020/12/25 08:08:21;;;;;;;;;;;;;;;7.58;99.15;99804.34;5070938;28;20063;-78
2020/12/25 08:11:26;;;;;;;29.50;19.90;;;;;;;7.61;98.84;99804.06;5070871;28;20343;-77
2020/12/25 08:14:32;;;;;;;26.95;20.52;;;;;;;7.65;98.38;99816.22;5070224;28;20063;-78
2020/12/25 08:17:37;;;;;;;28.30;19.83;;;;;;;7.62;98.65;99824.47;5050904;28;20052;-77
2020/12/25 08:20:41;;;;;;;28.80;20.15;;;;;;;7.56;98.81;99811.63;5049925;28;20064;-77
2020/12/25 08:23:46;;;;;;;31.38;20.10;;;;;;;7.48;98.67;99811.44;5050751;28;20052;-75
2020/12/25 08:26:58;;;;;;;29.23;19.90;;;;;;;7.47;98.46;99810.59;5051291;28;20060;-75
2020/12/25 08:30:06;;;;;;;28.17;17.83;;;;;;;7.57;97.89;99816.84;5053553;28;20087;-74
2020/12/25 08:33:11;;;;;;;26.83;19.38;;;;;;;7.57;98.13;99805.31;5056362;28;20059;-81
2020/12/25 08:36:15;;;;;;;27.20;18.55;;;;;;;7.49;98.45;99786.41;5057004;28;20060;-77
2020/12/25 08:39:30;;;;;;;29.52;22.50;;;;;;;7.49;98.03;99783.75;5063176;28;20052;-77
2020/12/25 08:42:34;;;;;;;27.05;19.60;;;;;;;7.73;97.26;99779.84;5056445;28;20056;-76
2020/12/25 08:46:00;;;;;;;25.58;16.40;;;;;;;7.77;97.14;99783.09;5066316;28;20044;-76
2020/12/25 08:49:04;;;;;;;25.58;17.27;;;;;;;7.71;97.27;99787.13;5066296;28;20071;-75
2020/12/25 08:52:24;;;;;;;23.88;18.00;;;;;;;7.63;97.39;99781.59;5071950;28;20391;-77
2020/12/25 08:55:28;;;;;;;24.25;17.95;;;;;;;7.73;97.55;99765.63;5073072;28;20063;-77
2020/12/25 08:58:32;;;;;;;;;;;;;;;7.84;97.13;99768.25;5073020;28;20055;-76
2020/12/25 09:01:39;;;;;;;22.13;16.15;;;;;;;7.96;96.49;99785.88;5073257;28;19936;-77
2020/12/25 09:04:44;;;;;;;23.95;16.45;;;;;;;8.01;96.75;99797.03;5074149;28;20406;-76
2020/12/25 09:07:48;;;;;;;20.02;15.68;;;;;;;8.12;96.73;99782.75;5075831;28;20055;-76
2020/12/25 09:10:53;;;;;;;22.02;14.90;;;;;;;8.27;96.06;99770.75;5076482;28;20048;-76
2020/12/25 09:13:57;;;;;;;19.15;14.63;;;;;;;8.46;95.63;99765.47;5076663;28;20056;-77
2020/12/25 09:17:01;;;;;;;23.77;16.48;;;;;;;8.32;94.28;99753.31;5076637;28;20375;-77
2020/12/25 09:20:06;;;;;;;20.35;15.10;;;;;;;8.52;93.81;99755.06;5075434;28;20043;-77
2020/12/25 09:23:11;;;;;;;18.20;13.80;;;;;;;8.65;93.75;99752.16;5076112;28;20159;-78
2020/12/25 09:26:15;;;;;;;21.00;15.32;;;;;;;8.60;93.74;99751.72;5075021;28;20048;-78
2020/12/25 09:29:19;;;;;;;27.25;21.05;;;;;;;8.52;94.11;99764.09;5076093;28;20098;-77
2020/12/25 09:32:23;;;;;;;19.05;15.95;;;;;;;8.64;93.82;99765.69;5075499;28;20052;-77
2020/12/25 09:35:28;;;;;;;19.35;15.85;;;;;;;8.50;94.22;99757.03;5075140;28;20421;-77
2020/12/25 09:38:33;;;;;;;24.05;16.55;;;;;;;8.25;94.78;99764.63;5076007;28;20051;-77
2020/12/25 09:41:38;;;;;;;51.13;38.65;;;;;;;8.24;95.56;99761.16;5075300;28;20059;-77
2020/12/25 09:44:42;;;;;;;59.70;45.75;;;;;;;8.22;96.03;99779.13;5075826;28;20044;-77
2020/12/25 09:47:46;;;;;;;26.05;18.90;;;;;;;8.05;95.77;99766.38;5075706;28;20494;-76
2020/12/25 09:50:51;;;;;;;28.70;19.65;;;;;;;8.11;96.59;99773.03;5075727;28;20047;-77
2020/12/25 09:53:55;;;;;;;26.05;19.83;;;;;;;8.12;96.45;99772.88;5075675;28;20048;-78
2020/12/25 09:57:02;;;;;;;28.83;19.50;;;;;;;8.04;96.56;99772.72;5075603;28;20071;-77
2020/12/25 10:00:15;;;;;;;27.52;18.88;;;;;;;7.92;96.72;99754.22;5075605;28;20486;-77
2020/12/25 10:03:19;;;;;;;29.73;19.75;;;;;;;7.94;97.04;99736.22;5075539;28;20051;-77
2020/12/25 10:06:25;;;;;;;30.15;21.20;;;;;;;8.01;97.17;99750.75;5075063;28;20063;-76
2020/12/25 10:09:30;;;;;;;27.95;21.08;;;;;;;7.94;97.89;99762.94;5075323;28;20055;-76
2020/12/25 10:12:34;;;;;;;29.02;19.88;;;;;;;8.02;97.18;99760.47;5074972;28;20048;-75
2020/12/25 10:15:38;;;;;;;26.67;19.45;;;;;;;8.11;96.86;99784.56;5075216;28;20059;-78
2020/12/25 10:18:42;;;;;;;26.45;20.00;;;;;;;8.06;97.29;99773.44;5075415;28;20052;-77
2020/12/25 10:21:51;;;;;;;29.40;19.85;;;;;;;8.02;97.74;99793.41;5075267;28;20048;-76
2020/12/25 10:24:56;;;;;;;26.60;19.02;;;;;;;8.27;97.00;99795.63;5074737;28;20051;-77
2020/12/25 10:28:00;;;;;;;26.35;19.83;;;;;;;8.14;97.14;99778.97;5074997;28;20059;-77
2020/12/25 10:31:05;;;;;;;34.15;21.63;;;;;;;8.07;97.70;99774.28;5074665;28;20056;-77
2020/12/25 10:34:10;;;;;;;32.90;23.83;;;;;;;8.08;98.30;99774.13;5075123;28;20056;-77
2020/12/25 10:37:14;;;;;;;37.08;23.73;;;;;;;8.08;98.34;99765.25;5074949;28;20051;-78
2020/12/25 10:40:18;;;;;;;32.25;23.20;;;;;;;7.96;97.64;99759.16;5074743;28;20471;-77
2020/12/25 10:43:22;;;;;;;30.33;21.98;;;;;;;8.13;97.54;99753.19;5074732;28;20052;-78
2020/12/25 10:46:42;;;;;;;31.30;21.48;;;;;;;8.15;97.85;99740.53;5074269;28;20048;-76
2020/12/25 10:49:47;;;;;;;49.28;38.15;;;;;;;8.20;97.66;99740.13;5074429;28;20395;-78
2020/12/25 10:52:50;;;;;;;42.33;32.72;;;;;;;8.59;96.05;99734.00;5074407;28;20063;-78
2020/12/25 10:55:55;;;;;;;24.38;18.73;;;;;;;8.55;95.76;99735.22;5074726;28;20056;-78
2020/12/25 10:59:00;;;;;;;23.58;18.15;;;;;;;8.68;95.43;99737.66;5074659;28;20048;-78
2020/12/25 11:02:05;;;;;;;24.15;19.15;;;;;;;8.64;95.80;99754.97;5074378;28;20051;-75
2020/12/25 11:05:14;;;;;;;23.42;17.90;;;;;;;8.56;95.30;99746.78;5074276;28;20067;-76
2020/12/25 11:08:19;;;;;;;26.02;19.05;;;;;;;8.41;96.24;99755.19;5072683;28;20118;-76
2020/12/25 11:11:30;;;;;;;23.30;18.10;;;;;;;8.44;96.37;99775.47;5074488;28;20052;-75
2020/12/25 11:14:34;;;;;;;26.63;19.70;;;;;;;8.39;96.69;99781.19;5073297;28;20055;-77
2020/12/25 11:17:38;;;;;;;29.10;21.10;;;;;;;8.28;97.15;99746.53;5074361;28;20115;-75
2020/12/25 11:20:43;;;;;;;25.20;17.25;;;;;;;8.30;96.16;99688.44;5074201;28;20047;-78
2020/12/25 11:23:50;;;;;;;23.13;16.83;;;;;;;8.46;95.78;99696.78;5074400;28;20063;-77
2020/12/25 11:26:54;;;;;;;23.35;17.88;;;;;;;8.48;96.21;99697.50;5073995;28;20407;-75
2020/12/25 11:29:59;;;;;;;21.63;16.30;;;;;;;8.35;96.15;99702.25;5074002;28;20047;-75
2020/12/25 11:33:04;;;;;;;21.40;16.05;;;;;;;8.49;95.58;99730.44;5074007;28;20047;-76
2020/12/25 11:36:12;;;;;;;24.40;17.77;;;;;;;8.55;95.57;99716.50;5073904;28;20072;-76
2020/12/25 11:39:17;;;;;;;24.58;17.33;;;;;;;8.31;96.25;99719.53;5073999;28;20388;-78
2020/12/25 11:42:21;;;;;;;25.92;19.58;;;;;;;8.19;96.45;99691.19;5073857;28;20475;-77
2020/12/25 11:45:26;;;;;;;24.70;19.35;;;;;;;8.18;97.41;99689.50;5073735;28;20051;-76
2020/12/25 11:48:30;;;;;;;27.13;20.45;;;;;;;8.22;97.63;99666.03;5072856;28;20051;-76
2020/12/25 11:51:35;;;;;;;29.90;20.50;;;;;;;8.42;97.62;99673.13;5073472;28;20048;-78
2020/12/25 11:54:39;;;;;;;38.42;29.38;;;;;;;8.52;97.47;99662.47;5073867;28;20051;-75
2020/12/25 11:57:43;;;;;;;33.83;27.50;;;;;;;8.60;97.41;99659.91;5073643;28;20384;-75
2020/12/25 12:00:47;;;;;;;24.67;18.55;;;;;;;8.61;97.17;99661.63;5073601;28;20384;-77
2020/12/25 12:03:52;;;;;;;35.15;22.52;;;;;;;8.53;97.10;99659.63;5073815;28;20111;-77
2020/12/25 12:06:57;;;;;;;29.20;22.05;;;;;;;8.32;97.13;99658.91;5075953;28;20055;-75
2020/12/25 12:10:02;;;;;;;29.35;21.80;;;;;;;8.18;98.04;99648.53;5077685;28;20404;-78
2020/12/25 12:13:06;;;;;;;31.42;21.30;;;;;;;8.28;97.54;99642.28;5076742;28;20482;-78
2020/12/25 12:16:15;;;;;;;30.35;21.52;;;;;;;8.22;98.26;99642.78;5077571;28;20115;-77
2020/12/25 12:19:20;;;;;;;29.98;22.08;;;;;;;8.23;98.25;99635.59;5088237;28;20052;-77
2020/12/25 12:22:25;;;;;;;35.03;23.00;;;;;;;8.36;98.24;99625.53;5077499;28;20051;-77
2020/12/25 12:25:29;;;;;;;35.90;25.15;;;;;;;8.37;98.03;99637.91;5076553;28;20052;-77
2020/12/25 12:28:34;;;;;;;36.58;24.83;;;;;;;8.21;97.69;99640.25;5077272;28;20479;-78
2020/12/25 12:31:38;;;;;;;39.30;26.48;;;;;;;8.27;97.89;99645.91;5077563;28;20388;-77
2020/12/25 12:34:42;;;;;;;42.05;26.48;;;;;;;8.15;98.18;99660.34;5077263;28;20048;-78
2020/12/25 12:37:47;;;;;;;41.05;27.23;;;;;;;8.17;98.48;99655.72;5077153;28;20483;-77
2020/12/25 12:40:52;;;;;;;46.20;27.85;;;;;;;8.18;97.90;99659.22;5077102;28;20055;-77
2020/12/25 12:43:56;;;;;;;40.70;28.05;;;;;;;8.05;97.94;99655.97;5077058;28;20063;-77
2020/12/25 12:47:00;;;;;;;41.90;27.50;;;;;;;8.03;98.20;99658.78;5076894;28;20493;-77
2020/12/25 12:50:06;;;;;;;39.03;25.88;;;;;;;8.17;98.02;99662.91;5077237;28;20371;-77
2020/12/25 12:53:10;;;;;;;40.10;26.27;;;;;;;8.09;97.95;99649.38;5076920;28;20047;-77
2020/12/25 12:56:15;;;;;;;37.80;25.00;;;;;;;7.99;97.35;99649.34;5076928;28;20055;-77
2020/12/25 12:59:19;;;;;;;38.97;27.00;;;;;;;8.05;97.85;99653.31;5076844;28;20051;-77
2020/12/25 13:02:23;;;;;;;39.50;26.52;;;;;;;8.01;97.69;99652.72;5076184;28;20055;-76
2020/12/25 13:05:28;;;;;;;39.10;27.52;;;;;;;7.98;97.89;99626.25;5076282;28;20067;-76
2020/12/25 13:08:32;;;;;;;34.92;25.17;;;;;;;8.16;97.42;99645.16;5076541;28;20055;-76
2020/12/25 13:11:36;;;;;;;41.08;26.35;;;;;;;7.99;97.69;99625.28;5076498;28;20075;-76
2020/12/25 13:14:40;;;;;;;44.80;28.23;;;;;;;8.02;98.25;99630.38;5076785;28;20051;-77
2020/12/25 13:17:45;;;;;;;44.63;30.10;;;;;;;7.87;98.03;99632.53;5076324;28;20047;-77
2020/12/25 13:20:49;;;;;;;46.25;29.27;;;;;;;7.92;98.49;99634.84;5076295;28;20482;-76
2020/12/25 13:23:54;;;;;;;47.88;31.95;;;;;;;7.85;98.67;99631.03;5076616;28;20043;-75
2020/12/25 13:26:58;;;;;;;49.83;30.25;;;;;;;7.95;98.55;99633.72;5076384;28;20067;-77
2020/12/25 13:30:03;;;;;;;43.33;29.70;;;;;;;7.94;98.68;99626.66;5075707;28;20052;-77
2020/12/25 13:33:07;;;;;;;41.15;27.73;;;;;;;7.96;98.42;99630.91;5076166;28;20051;-77
2020/12/25 13:36:12;;;;;;;40.95;27.75;;;;;;;8.03;98.79;99634.72;5076086;28;20051;-77
2020/12/25 13:39:16;;;;;;;44.75;29.85;;;;;;;7.90;98.63;99617.25;5076085;28;20067;-78
2020/12/25 13:42:20;;;;;;;42.78;28.58;;;;;;;7.90;98.59;99623.41;5076260;28;20055;-77
2020/12/25 13:45:25;;;;;;;40.65;27.58;;;;;;;7.89;98.43;99619.06;5075865;28;20044;-77
2020/12/25 13:48:31;;;;;;;42.30;29.60;;;;;;;7.90;98.53;99631.44;5075802;28;20047;-77
2020/12/25 13:51:35;;;;;;;48.65;31.35;;;;;;;7.94;98.24;99622.19;5075974;28;20055;-76
2020/12/25 13:54:40;;;;;;;43.92;29.00;;;;;;;8.00;98.73;99624.28;5075354;28;20511;-76
2020/12/25 13:57:44;;;;;;;51.28;31.90;;;;;;;7.80;99.03;99620.72;5075538;28;20051;-77
2020/12/25 14:00:48;;;;;;;49.08;30.42;;;;;;;7.77;99.40;99614.81;5075533;28;20051;-76
2020/12/25 14:03:52;;;;;;;49.92;33.30;;;;;;;7.74;99.56;99617.75;5075753;28;20384;-76
2020/12/25 14:06:57;;;;;;;56.30;32.80;;;;;;;7.75;99.29;99608.75;5075152;28;20055;-76
2020/12/25 14:10:03;;;;;;;58.10;35.17;;;;;;;7.73;99.83;99626.72;5075352;28;20483;-75
2020/12/25 14:13:07;;;;;;;54.40;33.22;;;;;;;7.74;100.00;99620.41;5075121;28;20071;-76
2020/12/25 14:16:15;;;;;;;52.03;33.50;;;;;;;7.81;99.63;99648.28;5074595;28;20047;-76
2020/12/25 14:19:20;;;;;;;53.95;31.10;;;;;;;7.83;99.84;99689.06;5074956;28;20072;-75
2020/12/25 14:22:24;;;;;;;37.35;25.15;;;;;;;7.83;99.36;99708.63;5075222;28;20043;-76
2020/12/25 14:25:29;;;;;;;10.90;7.90;;;;;;;7.62;96.95;99728.31;5075072;28;20056;-75